createdAt,value
2023-03-01T00:02:31.959Z,28
2023-03-01T00:07:48.511Z,27
2023-03-01T00:13:05.442Z,25
2023-03-01T00:18:21.869Z,22
2023-03-01T00:23:38.267Z,23
2023-03-01T00:28:54.672Z,26
2023-03-01T00:34:11.132Z,23
2023-03-01T00:39:27.538Z,25
2023-03-01T00:44:43.954Z,28
2023-03-01T00:50:00.389Z,32
2023-03-01T00:55:17.154Z,28
2023-03-01T01:00:33.552Z,24
2023-03-01T01:05:49.998Z,27
2023-03-01T01:11:07.128Z,25
2023-03-01T01:16:23.578Z,28
2023-03-01T01:21:40.710Z,28
2023-03-01T01:26:57.108Z,22
2023-03-01T01:32:13.588Z,36
2023-03-01T01:37:29.964Z,29
2023-03-01T01:42:46.326Z,28
2023-03-01T01:48:03.334Z,28
2023-03-01T01:53:19.742Z,28
2023-03-01T01:58:36.148Z,26
2023-03-01T02:03:53.097Z,30
2023-03-01T02:09:09.488Z,23
2023-03-01T02:14:25.932Z,22
2023-03-01T02:19:42.309Z,24
2023-03-01T02:24:58.732Z,25
2023-03-01T02:30:15.189Z,22
2023-03-01T02:35:31.635Z,26
2023-03-01T02:40:48.005Z,34
2023-03-01T02:46:04.424Z,23
2023-03-01T02:51:21.455Z,23
2023-03-01T02:56:37.862Z,21
2023-03-01T03:01:54.256Z,20
2023-03-01T03:07:10.444Z,25
2023-03-01T03:12:26.819Z,22
2023-03-01T03:17:45.176Z,19
2023-03-01T03:22:59.634Z,21
2023-03-01T03:28:16.000Z,20
2023-03-01T03:33:32.195Z,22
2023-03-01T03:38:48.603Z,21
2023-03-01T03:44:04.990Z,24
2023-03-01T03:49:22.903Z,23
2023-03-01T03:54:39.314Z,21
2023-03-01T03:59:55.677Z,20
2023-03-01T04:05:12.113Z,20
2023-03-01T04:10:28.465Z,19
2023-03-01T17:23:16.693Z,7
2023-03-01T17:28:32.988Z,6
2023-03-01T17:39:15.291Z,8
2023-03-01T17:44:31.672Z,5
2023-03-01T17:49:48.069Z,5
2023-03-01T17:55:04.463Z,8
2023-03-01T18:00:20.813Z,6
2023-03-01T18:05:37.228Z,5
2023-03-01T18:10:53.611Z,3
2023-03-01T18:16:09.986Z,5
2023-03-01T18:21:26.492Z,4
2023-03-01T18:26:43.498Z,5
2023-03-01T18:31:59.925Z,6
2023-03-01T18:37:16.280Z,5
2023-03-01T18:42:32.636Z,8
2023-03-01T18:47:49.050Z,5
2023-03-01T18:53:05.416Z,4
2023-03-01T18:58:21.763Z,0
2023-03-01T19:03:38.194Z,1
2023-03-01T19:08:54.550Z,1
2023-03-01T19:14:10.910Z,0
2023-03-01T19:19:27.297Z,2
2023-03-01T19:24:43.678Z,6
2023-03-01T19:30:00.025Z,5
2023-03-01T19:35:16.475Z,13
2023-03-01T19:40:32.785Z,8
2023-03-01T19:45:49.168Z,9
2023-03-01T19:51:05.571Z,9
2023-03-01T19:56:21.921Z,9
2023-03-01T20:01:38.353Z,7
2023-03-01T20:06:54.727Z,11
2023-03-01T20:12:11.056Z,11
2023-03-01T20:17:27.431Z,4
2023-03-01T20:22:43.832Z,6
2023-03-01T20:28:00.165Z,2
2023-03-01T20:33:16.582Z,3
2023-03-01T20:38:32.942Z,6
2023-03-01T20:43:49.285Z,1
2023-03-01T20:49:05.667Z,2
2023-03-01T20:54:22.056Z,2
2023-03-01T20:59:38.396Z,6
2023-03-01T21:04:54.830Z,7
2023-03-01T21:10:11.236Z,4
2023-03-01T21:15:29.608Z,8
2023-03-01T21:20:43.927Z,11
2023-03-01T21:26:00.292Z,12
2023-03-01T21:31:16.698Z,4
2023-03-01T21:36:33.542Z,5
2023-03-01T21:41:49.408Z,3
2023-03-01T21:47:05.815Z,11
2023-03-01T21:52:22.192Z,6
2023-03-01T21:57:38.542Z,6
2023-03-01T22:02:54.999Z,1
2023-03-01T22:08:11.399Z,3
2023-03-01T22:13:27.644Z,4
2023-03-01T22:18:44.749Z,2
2023-03-01T22:24:01.251Z,2
2023-03-01T22:29:17.516Z,2
2023-03-01T22:34:35.184Z,1
2023-03-01T22:39:50.370Z,1
2023-03-01T22:45:06.703Z,2
2023-03-01T22:50:23.089Z,2
2023-03-01T22:55:39.211Z,23
2023-03-01T23:00:55.585Z,3
2023-03-01T23:06:11.946Z,4
2023-03-01T23:11:28.369Z,5
2023-03-01T23:16:44.738Z,2
2023-03-01T23:22:01.050Z,5
2023-03-01T23:27:17.442Z,3
2023-03-01T23:32:33.845Z,2
2023-03-01T23:37:50.157Z,2
2023-03-01T23:43:06.575Z,5
2023-03-01T23:48:22.893Z,2
2023-03-01T23:53:39.296Z,5
2023-03-01T23:58:55.682Z,6
